createdAt,value
2023-05-02T00:01:16.823Z,7.16
2023-05-02T00:03:43.769Z,7.21
2023-05-02T00:06:11.341Z,7.16
2023-05-02T00:08:38.129Z,7.13
2023-05-02T00:11:05.478Z,7.17
2023-05-02T00:13:32.070Z,7.14
2023-05-02T00:15:58.621Z,7.13
2023-05-02T00:18:25.228Z,7.14
2023-05-02T00:20:51.793Z,7.08
2023-05-02T00:23:18.334Z,7.02
2023-05-02T00:25:46.128Z,6.96
2023-05-02T00:28:13.819Z,6.96
2023-05-02T00:30:44.939Z,6.97
2023-05-02T00:33:13.354Z,6.93
2023-05-02T00:35:40.734Z,6.87
2023-05-02T00:38:07.708Z,6.78
2023-05-02T00:40:48.589Z,6.83
2023-05-02T00:43:16.093Z,6.81
2023-05-02T00:45:43.963Z,6.78
2023-05-02T00:48:11.290Z,6.77
2023-05-02T00:50:40.452Z,6.74
2023-05-02T00:53:08.384Z,6.70
2023-05-02T00:55:35.658Z,6.70
2023-05-02T00:58:05.110Z,6.65
2023-05-02T01:00:43.257Z,6.69
2023-05-02T01:03:39.586Z,6.78
2023-05-02T01:06:12.656Z,6.77
2023-05-02T01:08:50.260Z,6.72
2023-05-02T01:11:26.765Z,6.70
2023-05-02T01:13:56.180Z,6.60
2023-05-02T01:16:24.731Z,6.54
2023-05-02T01:18:52.534Z,6.54
2023-05-02T01:21:19.375Z,6.53
2023-05-02T01:24:06.608Z,6.51
2023-05-02T01:26:44.200Z,6.52
2023-05-02T01:29:14.118Z,6.51
2023-05-02T01:31:44.212Z,6.49
2023-05-02T01:34:11.886Z,6.47
2023-05-02T01:36:46.588Z,6.51
2023-05-02T01:39:18.514Z,6.54
2023-05-02T01:41:49.036Z,6.60
2023-05-02T01:44:17.395Z,6.60
2023-05-02T01:46:44.729Z,6.55
2023-05-02T01:49:11.608Z,6.56
2023-05-02T01:51:46.015Z,6.48
2023-05-02T01:54:15.042Z,6.40
2023-05-02T01:56:43.712Z,6.44
2023-05-02T01:59:17.645Z,6.39
2023-05-02T02:01:45.989Z,6.43
2023-05-02T02:04:15.008Z,6.35
2023-05-02T02:06:47.293Z,6.37
2023-05-02T02:09:14.521Z,6.31
2023-05-02T02:11:48.989Z,6.21
2023-05-02T02:14:21.956Z,6.19
2023-05-02T02:16:50.813Z,6.16
2023-05-02T02:19:18.308Z,6.13
2023-05-02T02:21:48.183Z,6.12
2023-05-02T02:24:17.893Z,6.10
2023-05-02T02:26:44.515Z,6.13
2023-05-02T02:29:11.510Z,6.13
2023-05-02T02:31:39.769Z,6.13
2023-05-02T02:34:06.636Z,6.22
2023-05-02T02:36:47.852Z,6.11
2023-05-02T02:39:27.561Z,6.14
2023-05-02T02:42:09.564Z,6.12
2023-05-02T02:44:53.528Z,6.20
2023-05-02T02:47:31.861Z,6.14
2023-05-02T02:50:20.336Z,6.06
2023-05-02T02:52:53.634Z,5.99
2023-05-02T02:55:50.948Z,6.05
2023-05-02T02:58:45.515Z,5.97
2023-05-02T03:01:17.962Z,5.95
2023-05-02T03:03:45.527Z,5.90
2023-05-02T03:06:13.330Z,6.00
2023-05-02T03:08:41.618Z,6.05
2023-05-02T03:11:11.869Z,6.16
2023-05-02T03:13:38.542Z,6.22
2023-05-02T03:16:38.773Z,6.23
2023-05-02T03:19:09.499Z,6.21
2023-05-02T03:21:36.332Z,6.22
2023-05-02T03:24:10.001Z,6.21
2023-05-02T03:26:36.537Z,6.12
2023-05-02T03:29:03.994Z,6.12
2023-05-02T03:31:36.316Z,6.19
2023-05-02T03:34:03.962Z,6.26
2023-05-02T03:36:30.593Z,6.22
2023-05-02T03:38:57.335Z,6.29
2023-05-02T03:41:25.105Z,6.33
2023-05-02T03:43:58.902Z,6.33
2023-05-02T03:46:26.896Z,6.29
2023-05-02T03:48:54.330Z,6.33
2023-05-02T03:51:20.953Z,6.26
2023-05-02T03:53:51.265Z,6.30
2023-05-02T03:56:20.242Z,6.34
2023-05-02T03:58:54.925Z,6.30
2023-05-02T04:01:24.871Z,6.30
2023-05-02T04:03:53.432Z,6.35
2023-05-02T04:06:23.336Z,6.39
2023-05-02T04:08:59.625Z,6.46
2023-05-02T04:11:31.741Z,6.49
2023-05-02T04:13:58.379Z,6.58
2023-05-02T04:16:25.457Z,6.64
2023-05-02T04:18:52.352Z,6.67
2023-05-02T04:21:20.005Z,6.78
2023-05-02T04:23:47.651Z,6.78
2023-05-02T04:26:14.975Z,6.75
2023-05-02T04:28:51.028Z,6.77
2023-05-02T04:31:18.137Z,6.76
2023-05-02T04:33:45.995Z,6.76
2023-05-02T04:36:13.326Z,6.69
2023-05-02T04:38:43.272Z,6.72
2023-05-02T04:41:10.784Z,6.71
2023-05-02T04:43:43.125Z,6.58
2023-05-02T04:46:10.057Z,6.52
2023-05-02T04:48:42.209Z,6.63
2023-05-02T04:51:09.694Z,6.65
2023-05-02T04:53:38.981Z,6.63
2023-05-02T04:56:06.256Z,6.69
2023-05-02T04:58:35.749Z,6.68
2023-05-02T05:01:05.988Z,6.59
2023-05-02T05:03:33.645Z,6.65
2023-05-02T05:06:00.936Z,6.60
2023-05-02T05:08:28.561Z,6.48
2023-05-02T05:10:56.083Z,6.59
2023-05-02T05:13:23.566Z,6.69
2023-05-02T05:15:51.268Z,6.76
2023-05-02T05:18:20.156Z,6.75
2023-05-02T05:20:46.793Z,6.68
2023-05-02T05:23:13.396Z,6.70
2023-05-02T05:25:40.436Z,6.75
2023-05-02T05:28:08.104Z,6.71
2023-05-02T05:30:36.909Z,6.86
2023-05-02T05:33:06.658Z,6.96
2023-05-02T05:35:33.691Z,7.01
2023-05-02T05:38:01.847Z,7.15
2023-05-02T05:40:31.022Z,7.33
2023-05-02T05:42:58.656Z,7.45
2023-05-02T05:45:29.797Z,7.54
2023-05-02T05:47:56.426Z,7.58
2023-05-02T05:50:25.805Z,7.67
2023-05-02T05:52:52.487Z,7.60
2023-05-02T05:55:19.253Z,7.57
2023-05-02T05:57:46.486Z,7.66
2023-05-02T06:00:14.392Z,7.88
2023-05-02T06:02:47.161Z,8.01
2023-05-02T06:05:21.905Z,8.10
2023-05-02T06:07:48.499Z,8.19
2023-05-02T06:10:15.104Z,8.34
2023-05-02T06:12:43.162Z,8.25
2023-05-02T06:15:11.595Z,8.14
2023-05-02T06:17:39.233Z,8.24
2023-05-02T06:20:06.667Z,8.30
2023-05-02T06:22:33.272Z,8.39
2023-05-02T06:25:00.869Z,8.54
2023-05-02T06:27:27.766Z,8.56
2023-05-02T06:29:54.339Z,8.69
2023-05-02T06:32:21.616Z,8.94
2023-05-02T06:34:48.167Z,9.13
2023-05-02T06:37:14.719Z,9.25
2023-05-02T06:39:41.359Z,9.22
2023-05-02T06:42:07.875Z,9.33
2023-05-02T06:44:35.221Z,9.53
2023-05-02T06:47:01.896Z,9.62
2023-05-02T06:49:28.641Z,9.70
2023-05-02T06:51:55.230Z,9.84
2023-05-02T06:54:21.923Z,9.85
2023-05-02T06:56:48.530Z,9.86
2023-05-02T06:59:16.928Z,9.76
2023-05-02T07:01:46.448Z,9.68
2023-05-02T07:04:13.073Z,9.78
2023-05-02T07:06:40.406Z,9.90
2023-05-02T07:09:07.020Z,9.94
2023-05-02T07:11:33.734Z,10.09
2023-05-02T07:14:00.441Z,10.17
2023-05-02T07:16:27.801Z,10.30
2023-05-02T07:18:54.392Z,10.33
2023-05-02T07:21:21.019Z,10.28
2023-05-02T07:23:47.803Z,10.47
2023-05-02T07:26:14.488Z,10.50
2023-05-02T07:28:41.174Z,10.54
2023-05-02T07:31:07.771Z,10.74
2023-05-02T07:33:34.415Z,10.79
2023-05-02T07:36:02.228Z,10.94
2023-05-02T07:38:28.801Z,11.02
2023-05-02T07:40:58.855Z,10.94
2023-05-02T07:43:25.507Z,11.08
2023-05-02T07:45:52.203Z,11.09
2023-05-02T07:48:18.847Z,11.20
2023-05-02T07:50:45.539Z,11.23
2023-05-02T07:53:12.323Z,11.24
2023-05-02T07:55:38.872Z,11.19
2023-05-02T07:58:05.407Z,11.25
2023-05-02T08:00:31.966Z,11.55
2023-05-02T08:02:58.554Z,11.83
2023-05-02T08:05:25.098Z,12.13
2023-05-02T08:07:51.654Z,12.29
2023-05-02T08:10:18.230Z,12.26
2023-05-02T08:12:44.807Z,12.23
2023-05-02T08:15:13.695Z,12.30
2023-05-02T08:17:40.303Z,12.36
2023-05-02T08:20:07.567Z,12.46
2023-05-02T08:22:34.301Z,12.58
2023-05-02T08:25:00.865Z,12.60
2023-05-02T08:27:27.529Z,12.89
2023-05-02T08:29:54.178Z,13.13
2023-05-02T08:32:20.907Z,13.16
2023-05-02T08:34:47.543Z,13.39
2023-05-02T08:37:14.094Z,13.81
2023-05-02T08:39:40.845Z,13.84
2023-05-02T08:42:08.294Z,13.87
2023-05-02T08:44:34.970Z,13.91
2023-05-02T08:47:02.874Z,13.81
2023-05-02T08:49:32.110Z,13.72
2023-05-02T08:52:00.303Z,13.69
2023-05-02T08:54:27.103Z,13.77
2023-05-02T08:56:56.823Z,13.91
2023-05-02T08:59:23.417Z,13.99
2023-05-02T09:01:59.155Z,14.12
2023-05-02T09:04:32.401Z,14.32
2023-05-02T09:06:59.126Z,14.83
2023-05-02T09:09:26.833Z,14.77
2023-05-02T09:11:53.373Z,14.58
2023-05-02T09:14:20.160Z,14.78
2023-05-02T09:16:47.899Z,15.19
2023-05-02T09:19:27.839Z,15.23
2023-05-02T09:22:01.425Z,15.20
2023-05-02T09:24:28.506Z,15.38
2023-05-02T09:27:05.758Z,15.77
2023-05-02T09:29:38.597Z,15.64
2023-05-02T09:32:06.419Z,15.17
2023-05-02T09:34:34.965Z,14.68
2023-05-02T09:37:03.994Z,14.62
2023-05-02T09:39:30.940Z,14.33
2023-05-02T09:41:58.567Z,14.55
2023-05-02T09:44:26.824Z,14.96
2023-05-02T09:46:55.471Z,14.86
2023-05-02T09:49:43.182Z,15.08
2023-05-02T09:52:11.715Z,15.36
2023-05-02T09:54:38.463Z,14.98
2023-05-02T09:57:07.095Z,15.39
2023-05-02T09:59:33.872Z,15.84
2023-05-02T10:02:03.681Z,15.89
2023-05-02T10:04:32.320Z,15.59
2023-05-02T10:06:59.516Z,15.34
2023-05-02T10:09:27.953Z,15.71
2023-05-02T10:11:56.521Z,15.79
2023-05-02T10:14:27.868Z,15.46
2023-05-02T10:17:01.705Z,15.03
2023-05-02T10:19:42.413Z,14.95
2023-05-02T10:22:09.163Z,15.10
2023-05-02T10:24:37.459Z,14.97
2023-05-02T10:27:05.493Z,15.30
2023-05-02T10:29:33.778Z,15.29
2023-05-02T10:32:02.785Z,15.71
2023-05-02T10:34:32.469Z,16.80
2023-05-02T10:37:01.555Z,17.36
2023-05-02T10:39:29.388Z,17.28
2023-05-02T10:41:58.943Z,17.28
2023-05-02T10:44:36.018Z,16.58
2023-05-02T10:47:20.067Z,17.34
2023-05-02T10:49:54.443Z,17.99
2023-05-02T10:52:38.514Z,18.18
2023-05-02T10:55:22.405Z,17.57
2023-05-02T10:58:08.882Z,17.52
2023-05-02T11:00:35.637Z,17.58
2023-05-02T11:03:02.676Z,17.45
2023-05-02T11:05:29.745Z,17.35
2023-05-02T11:08:14.996Z,17.16
2023-05-02T11:10:41.686Z,17.04
2023-05-02T11:13:08.251Z,16.82
2023-05-02T11:15:54.450Z,16.95
2023-05-02T11:18:21.020Z,17.15
2023-05-02T11:20:47.598Z,17.12
2023-05-02T11:23:14.770Z,17.07
2023-05-02T11:25:43.617Z,17.18
2023-05-02T11:28:38.384Z,17.12
2023-05-02T11:31:06.430Z,16.78
2023-05-02T11:33:34.369Z,16.56
2023-05-02T11:36:01.183Z,16.24
2023-05-02T11:38:36.722Z,15.74
2023-05-02T11:41:04.370Z,15.68
2023-05-02T11:43:32.206Z,15.63
2023-05-02T11:46:00.805Z,15.89
2023-05-02T11:48:27.737Z,16.29
2023-05-02T11:50:57.310Z,16.67
2023-05-02T11:53:29.419Z,16.79
2023-05-02T11:55:58.339Z,16.55
2023-05-02T11:58:27.647Z,16.10
2023-05-02T12:00:54.271Z,16.34
2023-05-02T12:03:29.561Z,16.46
2023-05-02T12:05:58.183Z,16.94
2023-05-02T12:08:27.529Z,18.22
2023-05-02T12:10:56.368Z,18.56
2023-05-02T12:13:24.763Z,18.74
2023-05-02T12:15:53.287Z,17.58
2023-05-02T12:18:25.247Z,16.58
2023-05-02T12:20:52.621Z,15.87
2023-05-02T12:23:26.320Z,15.62
2023-05-02T12:25:52.971Z,15.44
2023-05-02T12:28:20.685Z,14.84
2023-05-02T12:30:49.667Z,14.55
2023-05-02T12:33:17.317Z,14.32
2023-05-02T12:35:46.066Z,14.13
2023-05-02T12:38:23.493Z,14.14
2023-05-02T12:40:52.356Z,14.04
2023-05-02T12:43:20.154Z,13.76
2023-05-02T12:45:48.622Z,13.68
2023-05-02T12:48:18.449Z,13.58
2023-05-02T12:50:45.062Z,13.54
2023-05-02T12:53:11.641Z,13.46
2023-05-02T12:55:38.301Z,13.00
2023-05-02T12:58:10.085Z,12.66
2023-05-02T13:00:39.181Z,12.69
2023-05-02T13:03:06.911Z,12.94
2023-05-02T13:05:34.064Z,13.18
2023-05-02T13:08:01.144Z,13.64
2023-05-02T13:10:28.212Z,14.49
2023-05-02T13:12:55.047Z,15.29
2023-05-02T13:15:21.778Z,15.76
2023-05-02T13:17:50.959Z,15.95
2023-05-02T13:20:17.746Z,15.82
2023-05-02T13:22:44.324Z,15.83
2023-05-02T13:25:10.909Z,16.66
2023-05-02T13:27:37.513Z,16.60
2023-05-02T13:30:07.869Z,17.10
2023-05-02T13:32:35.664Z,17.36
2023-05-02T13:35:04.201Z,17.18
2023-05-02T13:37:31.277Z,17.45
2023-05-02T13:39:57.891Z,17.77
2023-05-02T13:42:24.622Z,17.67
2023-05-02T13:44:51.264Z,17.24
2023-05-02T13:47:17.837Z,17.99
2023-05-02T13:49:44.436Z,18.53
2023-05-02T13:52:11.007Z,19.15
2023-05-02T13:54:37.717Z,19.04
2023-05-02T13:57:05.522Z,18.79
2023-05-02T13:59:32.083Z,18.15
2023-05-02T14:01:58.692Z,17.98
2023-05-02T14:04:25.318Z,17.49
2023-05-02T14:06:51.979Z,17.18
2023-05-02T14:09:18.707Z,17.13
2023-05-02T14:11:47.393Z,17.01
2023-05-02T14:14:14.314Z,17.04
2023-05-02T14:16:41.310Z,16.94
2023-05-02T14:19:08.043Z,16.80
2023-05-02T14:21:34.759Z,16.53
2023-05-02T14:24:01.379Z,16.51
2023-05-02T14:26:28.033Z,16.27
2023-05-02T14:28:54.591Z,16.46
2023-05-02T14:31:21.196Z,16.39
2023-05-02T14:33:47.910Z,16.47
2023-05-02T14:36:14.484Z,16.49
2023-05-02T14:38:41.090Z,16.43
2023-05-02T14:41:07.843Z,16.27
2023-05-02T14:43:34.454Z,16.34
2023-05-02T14:46:01.067Z,16.35
2023-05-02T14:48:27.715Z,16.23
2023-05-02T14:50:54.288Z,16.01
2023-05-02T14:53:21.326Z,16.00
2023-05-02T14:55:48.052Z,15.91
2023-05-02T14:58:20.409Z,16.24
2023-05-02T15:00:47.448Z,16.34
2023-05-02T15:03:14.277Z,17.21
2023-05-02T15:05:41.741Z,18.14
2023-05-02T15:08:08.451Z,17.67
2023-05-02T15:10:39.364Z,17.42
2023-05-02T15:13:06.779Z,17.87
2023-05-02T15:15:33.502Z,17.55
2023-05-02T15:18:00.249Z,17.99
2023-05-02T15:20:26.848Z,18.08
2023-05-02T15:22:53.392Z,17.69
2023-05-02T15:25:19.987Z,17.38
2023-05-02T15:27:46.830Z,17.21
2023-05-02T15:30:14.302Z,16.82
2023-05-02T15:32:42.097Z,16.48
2023-05-02T15:35:08.823Z,16.24
2023-05-02T15:37:35.950Z,16.09
2023-05-02T15:40:04.323Z,15.86
2023-05-02T15:42:31.219Z,15.78
2023-05-02T15:44:57.890Z,15.66
2023-05-02T15:47:25.031Z,15.45
2023-05-02T15:49:53.993Z,15.40
2023-05-02T15:52:21.525Z,15.24
2023-05-02T15:54:48.064Z,15.06
2023-05-02T15:57:14.622Z,14.82
2023-05-02T15:59:41.144Z,14.44
2023-05-02T16:02:07.856Z,14.12
2023-05-02T16:04:35.123Z,13.70
2023-05-02T16:07:02.301Z,13.24
2023-05-02T16:09:31.125Z,12.89
2023-05-02T16:11:58.047Z,12.62
2023-05-02T16:14:26.174Z,12.46
2023-05-02T16:16:52.841Z,12.20
2023-05-02T16:19:19.424Z,11.97
2023-05-02T16:21:46.025Z,11.72
2023-05-02T16:24:12.641Z,11.59
2023-05-02T16:26:39.258Z,11.44
2023-05-02T16:29:06.076Z,11.40
2023-05-02T16:31:32.793Z,11.42
2023-05-02T16:33:59.440Z,11.35
2023-05-02T16:36:26.435Z,11.20
2023-05-02T16:38:53.008Z,10.78
2023-05-02T16:41:19.562Z,10.66
2023-05-02T16:43:46.888Z,10.56
2023-05-02T16:46:13.609Z,10.66
2023-05-02T16:48:40.175Z,10.76
2023-05-02T16:51:06.981Z,10.88
2023-05-02T16:53:33.554Z,10.89
2023-05-02T16:56:00.173Z,10.79
2023-05-02T16:58:30.453Z,10.82
2023-05-02T17:00:59.226Z,10.97
2023-05-02T17:03:29.896Z,11.12
2023-05-02T17:06:01.296Z,11.15
2023-05-02T17:08:28.054Z,11.17
2023-05-02T17:10:54.651Z,11.25
2023-05-02T17:13:25.192Z,11.39
2023-05-02T17:15:53.815Z,11.55
2023-05-02T17:18:22.573Z,11.54
2023-05-02T17:20:51.461Z,11.61
2023-05-02T17:23:19.279Z,11.67
2023-05-02T17:25:46.906Z,11.66
2023-05-02T17:28:13.790Z,11.61
2023-05-02T17:30:40.739Z,11.50
2023-05-02T17:33:07.522Z,11.26
2023-05-02T17:35:34.369Z,11.20
2023-05-02T17:38:01.082Z,11.22
2023-05-02T17:40:27.871Z,11.16
2023-05-02T17:42:55.451Z,11.08
2023-05-02T17:45:22.190Z,10.99
2023-05-02T17:47:49.071Z,10.81
2023-05-02T17:50:15.829Z,10.62
2023-05-02T17:52:42.495Z,10.52
2023-05-02T17:55:09.172Z,10.46
2023-05-02T17:57:36.144Z,10.41
2023-05-02T18:00:04.588Z,10.44
2023-05-02T18:02:31.875Z,10.43
2023-05-02T18:05:00.516Z,10.40
2023-05-02T18:07:29.897Z,10.34
2023-05-02T18:09:56.894Z,10.34
2023-05-02T18:12:23.914Z,10.33
2023-05-02T18:14:52.495Z,10.29
2023-05-02T18:17:20.800Z,10.23
2023-05-02T18:19:49.215Z,10.17
2023-05-02T18:22:19.198Z,10.06
2023-05-02T18:24:47.125Z,10.00
2023-05-02T18:27:13.844Z,9.93
2023-05-02T18:29:41.373Z,9.76
2023-05-02T18:32:08.291Z,9.61
2023-05-02T18:34:37.790Z,9.60
2023-05-02T18:37:05.697Z,9.54
2023-05-02T18:39:34.183Z,9.47
2023-05-02T18:42:04.726Z,9.48
2023-05-02T18:44:32.029Z,9.50
2023-05-02T18:46:59.081Z,9.42
2023-05-02T18:49:26.295Z,9.34
2023-05-02T18:51:54.331Z,9.30
2023-05-02T18:54:22.895Z,9.24
2023-05-02T18:56:49.601Z,9.22
2023-05-02T18:59:17.117Z,9.17
2023-05-02T19:01:46.060Z,9.15
2023-05-02T19:04:16.274Z,9.05
2023-05-02T19:06:43.034Z,8.95
2023-05-02T19:09:09.685Z,8.86
2023-05-02T19:11:36.621Z,8.83
2023-05-02T19:14:03.662Z,8.79
2023-05-02T19:16:31.434Z,8.74
2023-05-02T19:18:58.316Z,8.70
2023-05-02T19:21:25.020Z,8.63
2023-05-02T19:23:52.741Z,8.48
2023-05-02T19:26:20.125Z,8.47
2023-05-02T19:28:47.030Z,8.43
2023-05-02T19:31:16.684Z,8.41
2023-05-02T19:33:50.162Z,8.35
2023-05-02T19:36:20.444Z,8.32
2023-05-02T19:38:52.156Z,8.26
2023-05-02T19:41:18.789Z,8.17
2023-05-02T19:43:45.695Z,8.13
2023-05-02T19:46:14.147Z,8.11
2023-05-02T19:48:40.791Z,8.05
2023-05-02T19:51:08.031Z,7.95
2023-05-02T19:53:36.295Z,7.96
2023-05-02T19:56:04.632Z,7.92
2023-05-02T19:58:31.286Z,7.82
2023-05-02T20:00:57.969Z,7.69
2023-05-02T20:03:25.447Z,7.70
2023-05-02T20:05:52.547Z,7.63
2023-05-02T20:08:19.545Z,7.57
2023-05-02T20:10:47.096Z,7.62
2023-05-02T20:13:13.771Z,7.60
2023-05-02T20:15:40.396Z,7.61
2023-05-02T20:18:07.015Z,7.52
2023-05-02T20:20:33.636Z,7.49
2023-05-02T20:23:00.237Z,7.40
2023-05-02T20:25:26.885Z,7.38
2023-05-02T20:27:53.483Z,7.31
2023-05-02T20:30:20.258Z,7.30
2023-05-02T20:32:46.895Z,7.24
2023-05-02T20:35:13.733Z,7.15
2023-05-02T20:37:40.388Z,7.21
2023-05-02T20:40:10.179Z,7.12
2023-05-02T20:42:38.991Z,7.22
2023-05-02T20:45:07.311Z,7.22
2023-05-02T20:47:37.031Z,7.17
2023-05-02T20:50:04.040Z,7.07
2023-05-02T20:52:31.755Z,7.04
2023-05-02T20:55:01.483Z,7.01
2023-05-02T20:57:28.356Z,7.00
2023-05-02T20:59:54.916Z,6.92
2023-05-02T21:02:21.438Z,6.92
2023-05-02T21:04:47.998Z,6.92
2023-05-02T21:07:14.630Z,6.87
2023-05-02T21:09:41.143Z,6.93
2023-05-02T21:12:08.003Z,6.89
2023-05-02T21:14:34.843Z,6.88
2023-05-02T21:17:01.473Z,6.80
2023-05-02T21:19:28.132Z,6.81
2023-05-02T21:21:54.727Z,6.77
2023-05-02T21:24:21.853Z,6.81
2023-05-02T21:26:48.440Z,6.69
2023-05-02T21:29:15.061Z,6.66
2023-05-02T21:31:41.960Z,6.65
2023-05-02T21:34:08.514Z,6.64
2023-05-02T21:36:35.041Z,6.65
2023-05-02T21:39:02.110Z,6.67
2023-05-02T21:41:28.776Z,6.65
2023-05-02T21:43:55.504Z,6.60
2023-05-02T21:46:22.594Z,6.64
2023-05-02T21:48:49.990Z,6.67
2023-05-02T21:51:16.524Z,6.60
2023-05-02T21:53:46.214Z,6.69
2023-05-02T21:56:12.824Z,6.70
2023-05-02T21:58:39.495Z,6.63
2023-05-02T22:01:06.157Z,6.53
2023-05-02T22:03:34.308Z,6.56
2023-05-02T22:06:05.785Z,6.61
2023-05-02T22:08:32.739Z,6.64
2023-05-02T22:10:59.358Z,6.57
2023-05-02T22:13:25.938Z,6.61
2023-05-02T22:15:52.463Z,6.61
2023-05-02T22:18:19.100Z,6.58
2023-05-02T22:20:46.479Z,6.56
2023-05-02T22:23:13.441Z,6.58
2023-05-02T22:25:42.623Z,6.60
2023-05-02T22:28:11.545Z,6.54
2023-05-02T22:30:38.835Z,6.55
2023-05-02T22:33:06.554Z,6.48
2023-05-02T22:35:33.686Z,6.46
2023-05-02T22:38:02.246Z,6.37
2023-05-02T22:40:31.298Z,6.32
2023-05-02T22:42:58.719Z,6.32
2023-05-02T22:45:26.788Z,6.27
2023-05-02T22:47:53.495Z,6.33
2023-05-02T22:50:21.446Z,6.28
2023-05-02T22:52:49.364Z,6.25
2023-05-02T22:55:16.363Z,6.18
2023-05-02T22:57:43.000Z,6.09
2023-05-02T23:00:10.867Z,6.09
2023-05-02T23:02:38.343Z,5.98
2023-05-02T23:05:06.506Z,5.94
2023-05-02T23:07:33.338Z,5.95
2023-05-02T23:10:00.044Z,5.97
2023-05-02T23:12:28.232Z,5.96
2023-05-02T23:14:54.874Z,5.91
2023-05-02T23:17:21.730Z,5.88
2023-05-02T23:19:49.531Z,5.78
2023-05-02T23:22:16.617Z,5.79
2023-05-02T23:24:46.261Z,5.81
2023-05-02T23:27:12.836Z,5.83
2023-05-02T23:29:39.401Z,5.80
2023-05-02T23:32:08.062Z,5.85
2023-05-02T23:34:36.441Z,5.79
2023-05-02T23:37:05.756Z,5.78
2023-05-02T23:39:32.959Z,5.78
2023-05-02T23:42:00.593Z,5.66
2023-05-02T23:44:27.239Z,5.69
2023-05-02T23:46:53.829Z,5.74
2023-05-02T23:49:21.540Z,5.65
2023-05-02T23:52:06.401Z,5.63
2023-05-02T23:54:52.141Z,5.69
2023-05-02T23:57:22.411Z,5.71
2023-05-02T23:59:49.125Z,5.65
